Time;durP1;ratioP1;P1;durP2;ratioP2;P2;SDS_P1;SDS_P2;PMS_P1;PMS_P2;Temp;Humidity;BMP_temperature;BMP_pressure;BME280_temperature;BME280_humidity;BME280_pressure;Samples;Min_cycle;Max_cycle;Signal;HPM_P1;HPM_P2
2023/05/19 00:00:59;;;;;;;;;;;;;;;11.35;100.00;-18333.56;5034643;28;19943;-78
2023/05/19 00:03:25;;;;;;;;;;;;;;;11.48;100.00;-18337.16;5036684;28;19976;-78
2023/05/19 00:05:55;;;;;;;;;;;;;;;11.48;100.00;-18337.00;5030866;28;20040;-78
2023/05/19 00:08:23;;;;;;;;;;;;;;;11.49;100.00;-18337.41;5032739;28;19931;-78
2023/05/19 00:10:48;;;;;;;;;;;;;;;11.60;100.00;-18340.31;5033432;28;19921;-79
2023/05/19 00:13:14;;;;;;;;;;;;;;;11.67;100.00;-18342.22;5030297;28;19928;-78
2023/05/19 00:15:40;;;;;;;;;;;;;;;11.69;100.00;-18342.63;5030058;28;19920;-78
2023/05/19 00:18:07;;;;;;;;;;;;;;;11.74;100.00;-18344.00;5031320;28;19928;-78
2023/05/19 00:20:32;;;;;;;;;;;;;;;11.67;100.00;-18342.22;5029635;28;19921;-78
2023/05/19 00:22:58;;;;;;;;;;;;;;;11.69;100.00;-18342.78;5029753;28;19925;-78
2023/05/19 00:25:23;;;;;;;;;;;;;;;11.61;100.00;-18340.56;5029933;28;19986;-78
2023/05/19 00:27:48;;;;;;;;;;;;;;;11.59;100.00;-18340.03;5031406;28;19921;-78
2023/05/19 00:30:13;;;;;;;;;;;;;;;11.51;100.00;-18337.97;5034466;28;19921;-78
2023/05/19 00:32:39;;;;;;;;;;;;;;;11.47;100.00;-18336.88;5008837;28;19929;-78
2023/05/19 00:35:05;;;;;;;;;;;;;;;11.36;100.00;-18333.84;5025758;28;19925;-78
2023/05/19 00:37:30;;;;;;;;;;;;;;;11.34;100.00;-18333.16;5032227;28;19948;-78
2023/05/19 00:39:55;;;;;;;;;;;;;;;10.74;100.00;-18317.09;5032397;28;19952;-78
2023/05/19 00:42:20;;;;;;;;;;;;;;;10.60;100.00;-18313.53;5032178;28;19929;-78
2023/05/19 00:44:46;;;;;;;;;;;;;;;10.71;100.00;-18316.41;5032146;28;19933;-79
2023/05/19 00:47:11;;;;;;;;;;;;;;;10.70;100.00;-18316.00;5032031;28;20307;-78
2023/05/19 00:49:36;;;;;;;;;;;;;;;10.72;100.00;-18316.69;5029352;28;19932;-79
2023/05/19 00:52:02;;;;;;;;;;;;;;;10.91;100.00;-18321.75;5017638;28;19921;-78
2023/05/19 00:54:27;;;;;;;;;;;;;;;10.99;100.00;-18323.97;5017343;28;20024;-78
2023/05/19 00:56:54;;;;;;;;;;;;;;;11.05;100.00;-18325.47;5014013;28;19968;-78
2023/05/19 00:59:19;;;;;;;;;;;;;;;10.91;100.00;-18321.75;5020896;28;19925;-78
2023/05/19 01:01:47;;;;;;;;;;;;;;;10.84;100.00;-18319.84;5014674;28;19929;-79
2023/05/19 01:04:15;;;;;;;;;;;;;;;10.89;100.00;-18321.06;5020529;28;19966;-79
2023/05/19 01:06:41;;;;;;;;;;;;;;;10.99;100.00;-18323.81;5012942;28;19928;-78
2023/05/19 01:09:07;;;;;;;;;;;;;;;11.06;100.00;-18325.75;5023557;28;19921;-79
2023/05/19 01:11:33;;;;;;;;;;;;;;;11.05;100.00;-18325.47;5030473;28;19932;-79
2023/05/19 01:13:58;;;;;;;;;;;;;;;10.87;100.00;-18320.66;5023800;28;20173;-78
2023/05/19 01:16:23;;;;;;;;;;;;;;;10.87;100.00;-18320.53;5025752;28;19956;-78
2023/05/19 01:18:48;;;;;;;;;;;;;;;10.78;100.00;-18318.31;5031238;28;19929;-78
2023/05/19 01:21:22;;;;;;;;;;;;;;;10.74;100.00;-18317.09;5027672;28;19921;-79
2023/05/19 01:23:55;;;;;;;;;;;;;;;10.77;100.00;-18317.91;5024986;28;19991;-78
2023/05/19 01:26:33;;;;;;;;;;;;;;;10.77;100.00;-18317.91;5026504;28;20432;-78
2023/05/19 01:29:09;;;;;;;;;;;;;;;10.59;100.00;-18313.25;5026456;28;20022;-78
2023/05/19 01:31:35;;;;;;;;;;;;;;;10.54;100.00;-18311.88;5028158;28;19922;-78
2023/05/19 01:34:03;;;;;;;;;;;;;;;10.48;100.00;-18310.09;5024063;28;19952;-79
2023/05/19 01:36:30;;;;;;;;;;;;;;;10.55;100.00;-18312.16;5022300;28;20307;-78
2023/05/19 01:38:57;;;;;;;;;;;;;;;10.60;100.00;-18313.53;5010384;28;20472;-79
2023/05/19 01:41:23;;;;;;;;;;;;;;;10.59;100.00;-18313.25;5027170;28;19922;-79
2023/05/19 01:43:48;;;;;;;;;;;;;;;10.61;100.00;-18313.66;5025442;28;19929;-79
2023/05/19 01:46:14;;;;;;;;;;;;;;;10.59;100.00;-18313.25;5018551;28;19928;-79
2023/05/19 01:48:40;;;;;;;;;;;;;;;10.61;100.00;-18313.78;5026535;28;19929;-79
2023/05/19 01:51:05;;;;;;;;;;;;;;;10.51;100.00;-18311.06;5020802;28;20392;-79
2023/05/19 01:53:30;;;;;;;;;;;;;;;10.53;100.00;-18311.59;5023754;28;19959;-79
2023/05/19 01:55:56;;;;;;;;;;;;;;;10.50;100.00;-18310.78;5017835;28;19936;-79
2023/05/19 01:58:24;;;;;;;;;;;;;;;10.66;100.00;-18314.91;5021286;28;19955;-79
2023/05/19 02:00:55;;;;;;;;;;;;;;;10.38;100.00;-18307.63;5016446;28;19927;-78
2023/05/19 02:03:28;;;;;;;;;;;;;;;10.33;100.00;-18306.25;5019535;28;20016;-79
2023/05/19 02:05:59;;;;;;;;;;;;;;;10.41;100.00;-18308.31;5024010;28;19953;-79
2023/05/19 02:08:50;;;;;;;;;;;;;;;10.38;100.00;-18307.63;5024941;28;20000;-79
2023/05/19 02:11:30;;;;;;;;;;;;;;;10.42;100.00;-18308.44;5018036;28;19928;-79
2023/05/19 02:13:59;;;;;;;;;;;;;;;10.38;100.00;-18307.47;5031378;28;19929;-79
2023/05/19 02:16:26;;;;;;;;;;;;;;;10.37;100.00;-18307.19;5021932;28;19941;-78
2023/05/19 02:18:52;;;;;;;;;;;;;;;10.32;100.00;-18305.97;5021629;28;20349;-79
2023/05/19 02:21:18;;;;;;;;;;;;;;;10.36;100.00;-18306.94;5019089;28;20381;-78
2023/05/19 02:23:43;;;;;;;;;;;;;;;10.35;100.00;-18306.78;5017388;28;19928;-78
2023/05/19 02:26:08;;;;;;;;;;;;;;;10.25;100.00;-18303.91;5017672;28;19929;-79
2023/05/19 02:28:34;;;;;;;;;;;;;;;10.25;100.00;-18303.91;5017120;28;19929;-79
2023/05/19 02:31:00;;;;;;;;;;;;;;;10.08;100.00;-18299.50;5017577;28;19925;-79
2023/05/19 02:33:26;;;;;;;;;;;;;;;10.05;100.00;-18298.53;5018452;28;19948;-79
2023/05/19 02:35:51;;;;;;;;;;;;;;;10.03;100.00;-18298.13;5019840;28;19936;-79
2023/05/19 02:38:17;;;;;;;;;;;;;;;10.02;100.00;-18297.72;5010294;28;19922;-79
2023/05/19 02:40:42;;;;;;;;;;;;;;;10.03;100.00;-18298.13;5023212;28;19921;-79
2023/05/19 02:43:07;;;;;;;;;;;;;;;9.91;100.00;-18294.81;5016477;28;19937;-79
2023/05/19 02:45:32;;;;;;;;;;;;;;;9.74;100.00;-18290.28;5023077;28;19921;-79
2023/05/19 02:47:58;;;;;;;;;;;;;;;9.76;100.00;-18290.69;5023034;28;19929;-79
2023/05/19 02:50:23;;;;;;;;;;;;;;;9.61;100.00;-18286.84;5018673;28;20019;-79
2023/05/19 02:52:48;;;;;;;;;;;;;;;9.59;100.00;-18286.31;5019025;28;19925;-79
2023/05/19 02:55:15;;;;;;;;;;;;;;;9.63;100.00;-18287.25;5022140;28;19927;-79
2023/05/19 02:57:41;;;;;;;;;;;;;;;9.52;100.00;-18284.25;5020577;28;20801;-79
2023/05/19 03:00:07;;;;;;;;;;;;;;;9.32;100.00;-18279.00;5024497;28;19958;-79
2023/05/19 03:02:32;;;;;;;;;;;;;;;9.36;100.00;-18280.13;5018976;28;20616;-79
2023/05/19 03:05:00;;;;;;;;;;;;;;;9.33;100.00;-18279.16;5020015;28;19921;-79
2023/05/19 03:07:25;;;;;;;;;;;;;;;9.38;100.00;-18280.66;5016665;28;20055;-78
2023/05/19 03:09:51;;;;;;;;;;;;;;;9.39;100.00;-18280.94;5023592;28;19996;-79
2023/05/19 03:12:16;;;;;;;;;;;;;;;9.50;100.00;-18283.81;5023873;28;19931;-79
2023/05/19 03:14:42;;;;;;;;;;;;;;;9.49;100.00;-18283.56;5013388;28;19925;-79
2023/05/19 03:17:08;;;;;;;;;;;;;;;9.44;100.00;-18282.19;5019452;28;19947;-79
2023/05/19 03:19:34;;;;;;;;;;;;;;;9.42;100.00;-18281.63;5017556;28;20004;-79
2023/05/19 03:21:59;;;;;;;;;;;;;;;9.41;100.00;-18281.50;5017581;28;19967;-79
2023/05/19 03:24:24;;;;;;;;;;;;;;;9.22;100.00;-18276.41;5017616;28;20021;-79
2023/05/19 03:26:50;;;;;;;;;;;;;;;9.34;100.00;-18279.56;5014220;28;19921;-79
2023/05/19 03:29:15;;;;;;;;;;;;;;;9.34;100.00;-18279.56;5016384;28;19929;-79
2023/05/19 03:31:41;;;;;;;;;;;;;;;9.29;100.00;-18278.06;5025450;28;19929;-78
2023/05/19 03:34:06;;;;;;;;;;;;;;;9.30;100.00;-18278.47;5014830;28;19921;-79
2023/05/19 03:36:31;;;;;;;;;;;;;;;9.25;100.00;-18277.22;5018663;28;19921;-79
2023/05/19 03:38:57;;;;;;;;;;;;;;;9.19;100.00;-18275.44;5014474;28;19982;-79
2023/05/19 03:41:22;;;;;;;;;;;;;;;9.19;100.00;-18275.56;5015843;28;20483;-79
2023/05/19 03:43:47;;;;;;;;;;;;;;;9.18;100.00;-18275.31;5016510;28;19925;-79
2023/05/19 03:46:13;;;;;;;;;;;;;;;9.25;100.00;-18277.22;5019827;28;20395;-79
2023/05/19 03:48:38;;;;;;;;;;;;;;;9.20;100.00;-18275.72;5017664;28;20452;-79
2023/05/19 03:51:03;;;;;;;;;;;;;;;9.22;100.00;-18276.41;5018954;28;19929;-79
2023/05/19 03:53:29;;;;;;;;;;;;;;;9.13;100.00;-18273.94;5022934;28;19921;-79
2023/05/19 03:55:55;;;;;;;;;;;;;;;9.11;100.00;-18273.38;5014594;28;19940;-79
2023/05/19 03:58:20;;;;;;;;;;;;;;;9.22;100.00;-18276.25;5015938;28;19952;-79
2023/05/19 04:00:45;;;;;;;;;;;;;;;9.12;100.00;-18273.66;5016690;28;19968;-79
2023/05/19 04:03:11;;;;;;;;;;;;;;;9.12;100.00;-18273.66;5019515;28;19960;-79
2023/05/19 04:05:36;;;;;;;;;;;;;;;8.87;100.00;-18266.91;5022148;28;19929;-79
2023/05/19 04:08:01;;;;;;;;;;;;;;;8.85;100.00;-18266.22;5016224;28;20020;-79
2023/05/19 04:10:27;;;;;;;;;;;;;;;8.97;100.00;-18269.53;5015788;28;19929;-79
2023/05/19 04:12:52;;;;;;;;;;;;;;;9.15;100.00;-18274.47;5017321;28;19921;-79
2023/05/19 04:15:17;;;;;;;;;;;;;;;9.12;100.00;-18273.66;5017185;28;19929;-79
2023/05/19 04:17:42;;;;;;;;;;;;;;;9.20;100.00;-18275.84;5028182;28;19921;-79
2023/05/19 04:20:08;;;;;;;;;;;;;;;8.99;100.00;-18270.06;5015284;28;19921;-79
2023/05/19 04:22:34;;;;;;;;;;;;;;;9.03;100.00;-18271.16;5018727;28;20211;-79
2023/05/19 04:24:59;;;;;;;;;;;;;;;9.14;100.00;-18274.06;5021183;28;20711;-79
2023/05/19 04:27:26;;;;;;;;;;;;;;;9.18;100.00;-18275.31;5021509;28;19921;-79
2023/05/19 04:29:51;;;;;;;;;;;;;;;9.24;100.00;-18276.81;5018426;28;19925;-79
2023/05/19 04:32:17;;;;;;;;;;;;;;;9.40;100.00;-18281.06;5019460;28;19943;-79
2023/05/19 04:34:44;;;;;;;;;;;;;;;9.51;100.00;-18283.97;5021830;28;19921;-79
2023/05/19 04:37:10;;;;;;;;;;;;;;;9.64;100.00;-18287.53;5020517;28;19929;-79
2023/05/19 04:39:38;;;;;;;;;;;;;;;9.81;100.00;-18292.06;5016141;28;20028;-79
2023/05/19 04:42:04;;;;;;;;;;;;;;;9.93;100.00;-18295.50;5019175;28;20431;-79
2023/05/19 04:44:30;;;;;;;;;;;;;;;9.84;100.00;-18292.91;5021442;28;19925;-79
2023/05/19 04:46:57;;;;;;;;;;;;;;;9.88;100.00;-18294.00;5021631;28;20367;-79
2023/05/19 04:49:23;;;;;;;;;;;;;;;10.01;100.00;-18297.44;5024657;28;19922;-79
2023/05/19 04:51:49;;;;;;;;;;;;;;;9.86;100.00;-18293.44;5020994;28;19925;-79
2023/05/19 04:54:14;;;;;;;;;;;;;;;9.92;100.00;-18295.09;5028277;28;19928;-78
2023/05/19 04:56:40;;;;;;;;;;;;;;;9.89;100.00;-18294.41;5020367;28;19933;-79
2023/05/19 04:59:06;;;;;;;;;;;;;;;10.04;100.00;-18298.41;5021384;28;19928;-79
2023/05/19 05:01:31;;;;;;;;;;;;;;;10.00;100.00;-18297.31;5026914;28;19922;-79
2023/05/19 05:03:57;;;;;;;;;;;;;;;10.12;100.00;-18300.59;5029650;28;19925;-79
2023/05/19 05:06:23;;;;;;;;;;;;;;;10.26;100.00;-18304.16;5028814;28;19935;-79
2023/05/19 05:08:48;;;;;;;;;;;;;;;10.37;100.00;-18307.19;5024191;28;19924;-79
2023/05/19 05:11:14;;;;;;;;;;;;;;;10.47;100.00;-18309.81;5021994;28;19999;-79
2023/05/19 05:13:39;;;;;;;;;;;;;;;10.57;100.00;-18312.56;5013725;28;19929;-78
2023/05/19 05:16:05;;;;;;;;;;;;;;;10.60;100.00;-18313.38;5019406;28;19929;-79
2023/05/19 05:18:31;;;;;;;;;;;;;;;10.60;100.00;-18313.38;5019567;28;19921;-79
2023/05/19 05:20:56;;;;;;;;;;;;;;;10.78;100.00;-18318.19;5025465;28;19921;-79
2023/05/19 05:23:22;;;;;;;;;;;;;;;10.77;100.00;-18317.91;5015784;28;19933;-78
2023/05/19 05:25:47;;;;;;;;;;;;;;;10.93;100.00;-18322.19;5021952;28;19987;-79
2023/05/19 05:28:12;;;;;;;;;;;;;;;11.01;100.00;-18324.38;5014032;28;19927;-79
2023/05/19 05:30:37;;;;;;;;;;;;;;;11.12;100.00;-18327.25;5021607;28;19921;-79
2023/05/19 05:33:03;;;;;;;;;;;;;;;11.17;100.00;-18328.63;5021312;28;19945;-79
2023/05/19 05:35:28;;;;;;;;;;;;;;;11.28;100.00;-18331.66;5022801;28;19928;-79
2023/05/19 05:37:53;;;;;;;;;;;;;;;11.31;100.00;-18332.47;5023743;28;20210;-79
2023/05/19 05:40:19;;;;;;;;;;;;;;;11.44;100.00;-18336.03;5015418;28;19928;-78
2023/05/19 05:42:44;;;;;;;;;;;;;;;11.12;100.00;-18327.41;5025014;28;19933;-79
2023/05/19 05:45:09;;;;;;;;;;;;;;;11.26;100.00;-18331.09;5019361;28;20435;-79
2023/05/19 05:47:36;;;;;;;;;;;;;;;11.29;100.00;-18332.06;5024628;28;19922;-79
2023/05/19 05:50:03;;;;;;;;;;;;;;;11.35;100.00;-18333.56;5022242;28;19975;-79
2023/05/19 05:52:29;;;;;;;;;;;;;;;11.28;100.00;-18331.66;5017748;28;19928;-78
2023/05/19 05:54:54;;;;;;;;;;;;;;;11.54;100.00;-18338.66;5021001;28;19929;-78
2023/05/19 05:57:20;;;;;;;;;;;;;;;11.71;100.00;-18343.19;5020337;28;19929;-78
2023/05/19 05:59:46;;;;;;;;;;;;;;;11.82;100.00;-18346.06;5017108;28;19948;-79
2023/05/19 06:02:11;;;;;;;;;;;;;;;11.94;100.00;-18349.38;5022601;28;19952;-79
2023/05/19 06:04:36;;;;;;;;;;;;;;;12.08;100.00;-18353.19;5019277;28;19995;-78
2023/05/19 06:07:01;;;;;;;;;;;;;;;12.18;100.00;-18355.94;5023530;28;20020;-79
2023/05/19 06:09:28;;;;;;;;;;;;;;;12.33;100.00;-18359.94;5022014;28;19940;-79
2023/05/19 06:11:53;;;;;;;;;;;;;;;12.56;100.00;-18366.09;5019915;28;20400;-79
2023/05/19 06:14:18;;;;;;;;;;;;;;;12.82;100.00;-18373.09;5025578;28;19959;-79
2023/05/19 06:16:44;;;;;;;;;;;;;;;12.96;100.00;-18376.78;5021047;28;19936;-78
2023/05/19 06:19:09;;;;;;;;;;;;;;;12.93;100.00;-18375.97;5021217;28;20560;-79
2023/05/19 06:21:35;;;;;;;;;;;;;;;13.12;100.00;-18380.91;5014657;28;20668;-78
2023/05/19 06:24:00;;;;;;;;;;;;;;;13.30;100.00;-18385.84;5019164;28;19933;-78
2023/05/19 06:26:25;;;;;;;;;;;;;;;13.45;100.00;-18389.81;5015574;28;19932;-79
2023/05/19 06:28:51;;;;;;;;;;;;;;;13.40;100.00;-18388.44;5017770;28;19924;-78
2023/05/19 06:31:16;;;;;;;;;;;;;;;13.63;100.00;-18394.75;5019319;28;19925;-79
2023/05/19 06:33:41;;;;;;;;;;;;;;;13.65;100.00;-18395.31;5023617;28;19921;-79
2023/05/19 06:36:08;;;;;;;;;;;;;;;13.79;100.00;-18399.00;5021817;28;19924;-78
2023/05/19 06:38:34;;;;;;;;;;;;;;;13.92;100.00;-18402.41;5017478;28;19933;-79
2023/05/19 06:40:59;;;;;;;;;;;;;;;14.07;100.00;-18406.53;5025116;28;19921;-79
2023/05/19 06:43:24;;;;;;;;;;;;;;;14.22;100.00;-18410.63;5022561;28;19933;-79
2023/05/19 06:45:50;;;;;;;;;;;;;;;14.28;100.00;-18412.00;5022952;28;19953;-78
2023/05/19 06:48:18;;;;;;;;;;;;;;;14.31;100.00;-18412.84;5014000;28;19922;-79
2023/05/19 06:50:43;;;;;;;;;;;;;;;14.49;100.00;-18417.75;5019511;28;20432;-78
2023/05/19 06:53:08;;;;;;;;;;;;;;;14.71;100.00;-18423.50;5018940;28;20011;-79
2023/05/19 06:55:33;;;;;;;;;;;;;;;14.85;100.00;-18427.34;5034867;28;20620;-79
2023/05/19 06:57:59;;;;;;;;;;;;;;;14.88;100.00;-18428.16;5023840;28;20017;-79
2023/05/19 07:00:24;;;;;;;;;;;;;;;15.05;100.00;-18432.69;5017295;28;19952;-79
2023/05/19 07:02:50;;;;;;;;;;;;;;;15.14;100.00;-18435.00;5020447;28;19980;-78
2023/05/19 07:05:15;;;;;;;;;;;;;;;14.97;100.00;-18430.63;5019787;28;19944;-79
2023/05/19 07:07:40;;;;;;;;;;;;;;;15.00;100.00;-18431.44;5033335;28;20082;-79
2023/05/19 07:10:06;;;;;;;;;;;;;;;15.15;100.00;-18435.28;5033446;28;19979;-79
2023/05/19 07:12:31;;;;;;;;;;;;;;;15.31;100.00;-18439.66;5032347;28;19917;-79
2023/05/19 07:14:56;;;;;;;;;;;;;;;15.58;100.00;-18447.03;5031122;28;20392;-79
2023/05/19 07:17:21;;;;;;;;;;;;;;;15.65;100.00;-18448.69;5035361;28;19924;-79
2023/05/19 07:19:47;;;;;;;;;;;;;;;15.69;100.00;-18449.91;5034903;28;19918;-79
2023/05/19 07:22:12;;;;;;;;;;;;;;;16.02;100.00;-18458.66;5030039;28;19924;-79
2023/05/19 07:24:37;;;;;;;;;;;;;;;16.27;97.92;-18465.22;5033354;28;20320;-79
2023/05/19 07:27:03;;;;;;;;;;;;;;;16.35;89.12;-18467.41;5026955;28;19917;-79
2023/05/19 07:29:28;;;;;;;;;;;;;;;16.44;89.79;-18469.88;5032428;28;19967;-79
2023/05/19 07:31:56;;;;;;;;;;;;;;;16.56;88.68;-18473.16;5033654;28;19925;-79
2023/05/19 07:34:22;;;;;;;;;;;;;;;16.70;85.74;-18476.84;5030518;28;19922;-79
2023/05/19 07:36:47;;;;;;;;;;;;;;;17.04;79.45;-18485.88;5026510;28;19923;-80
2023/05/19 07:39:12;;;;;;;;;;;;;;;16.85;83.72;-18480.94;5027819;28;19917;-79
2023/05/19 07:41:38;;;;;;;;;;;;;;;16.95;78.55;-18483.41;5028584;28;20392;-80
2023/05/19 07:44:06;;;;;;;;;;;;;;;16.86;74.12;-18481.22;5034904;28;19921;-80
2023/05/19 07:46:32;;;;;;;;;;;;;;;16.88;78.48;-18481.63;5028680;28;19968;-79
2023/05/19 07:48:57;;;;;;;;;;;;;;;17.01;80.77;-18485.19;5030363;28;19952;-80
2023/05/19 07:51:22;;;;;;;;;;;;;;;17.09;73.42;-18487.22;5027796;28;19921;-80
2023/05/19 07:53:47;;;;;;;;;;;;;;;17.22;75.56;-18490.66;5029011;28;19936;-80
2023/05/19 07:56:13;;;;;;;;;;;;;;;17.25;74.18;-18491.59;5021201;28;19918;-80
2023/05/19 07:58:38;;;;;;;;;;;;;;;17.20;71.39;-18490.22;5035512;28;19917;-80
2023/05/19 08:01:03;;;;;;;;;;;;;;;17.17;72.55;-18489.28;5025858;28;19929;-79
2023/05/19 08:03:29;;;;;;;;;;;;;;;17.19;72.00;-18489.81;5027592;28;20384;-79
2023/05/19 08:05:54;;;;;;;;;;;;;;;17.36;76.92;-18494.59;5022202;28;19980;-79
2023/05/19 08:08:20;;;;;;;;;;;;;;;17.58;73.78;-18500.34;5021504;28;19921;-80
2023/05/19 08:10:45;;;;;;;;;;;;;;;17.59;72.79;-18500.59;5028822;28;19925;-79
2023/05/19 08:13:11;;;;;;;;;;;;;;;17.56;69.38;-18499.94;5029379;28;19917;-79
2023/05/19 08:15:36;;;;;;;;;;;;;;;17.80;71.74;-18506.22;5040880;28;19924;-80
2023/05/19 08:18:02;;;;;;;;;;;;;;;17.89;68.99;-18508.66;5028542;28;19924;-79
2023/05/19 08:20:27;;;;;;;;;;;;;;;17.89;68.18;-18508.66;5030440;28;19923;-80
2023/05/19 08:22:52;;;;;;;;;;;;;;;17.81;64.12;-18506.47;5032016;28;19948;-80
2023/05/19 08:25:18;;;;;;;;;;;;;;;17.91;65.57;-18509.06;5033820;28;20395;-80
2023/05/19 08:27:43;;;;;;;;;;;;;;;18.01;65.20;-18511.81;5026433;28;20013;-79
2023/05/19 08:30:09;;;;;;;;;;;;;;;18.08;63.50;-18513.72;5022897;28;19925;-79
2023/05/19 08:32:34;;;;;;;;;;;;;;;18.10;59.51;-18514.25;5027345;28;19971;-79
2023/05/19 08:34:59;;;;;;;;;;;;;;;18.25;59.73;-18518.22;5024047;28;19917;-79
2023/05/19 08:37:25;;;;;;;;;;;;;;;18.26;58.79;-18518.63;5026382;28;19921;-79
2023/05/19 08:39:50;;;;;;;;;;;;;;;18.28;60.24;-18519.03;5027836;28;19925;-79
2023/05/19 08:42:15;;;;;;;;;;;;;;;18.31;59.86;-18519.84;5027804;28;19921;-79
2023/05/19 08:44:42;;;;;;;;;;;;;;;18.55;58.71;-18526.25;5029736;28;19925;-79
2023/05/19 08:47:12;;;;;;;;;;;;;;;18.53;59.09;-18525.72;5031455;28;19925;-79
2023/05/19 08:49:42;;;;;;;;;;;;;;;18.75;58.43;-18531.44;5027454;28;19925;-79
2023/05/19 08:52:07;;;;;;;;;;;;;;;18.82;55.13;-18533.34;5030077;28;19974;-79
2023/05/19 08:54:37;;;;;;;;;;;;;;;18.82;53.35;-18533.34;5031614;28;19917;-79
2023/05/19 08:57:04;;;;;;;;;;;;;;;18.76;51.36;-18531.84;5020570;28;19917;-79
2023/05/19 08:59:29;;;;;;;;;;;;;;;18.69;52.68;-18530.06;5030887;28;19921;-79
2023/05/19 09:01:54;;;;;;;;;;;;;;;18.81;54.82;-18533.06;5027484;28;19932;-79
2023/05/19 09:04:20;;;;;;;;;;;;;;;18.70;53.44;-18530.34;5029719;28;20018;-79
2023/05/19 09:06:47;;;;;;;;;;;;;;;18.69;55.04;-18530.06;5036099;28;20048;-79
2023/05/19 09:09:12;;;;;;;;;;;;;;;18.82;53.29;-18533.34;5039035;28;20319;-79
2023/05/19 09:11:37;;;;;;;;;;;;;;;19.04;52.05;-18539.22;5033694;28;19917;-79
2023/05/19 09:14:03;;;;;;;;;;;;;;;18.93;52.47;-18536.34;5031723;28;20396;-79
2023/05/19 09:16:29;;;;;;;;;;;;;;;19.07;56.39;-18540.16;5022671;28;19922;-79
2023/05/19 09:18:55;;;;;;;;;;;;;;;19.22;57.78;-18544.13;5035241;28;19921;-79
2023/05/19 09:21:26;;;;;;;;;;;;;;;19.24;53.35;-18544.66;5030525;28;19917;-79
2023/05/19 09:23:54;;;;;;;;;;;;;;;19.29;51.40;-18545.88;5027058;28;20028;-79
2023/05/19 09:26:22;;;;;;;;;;;;;;;19.52;52.64;-18552.16;5022054;28;19957;-79
2023/05/19 09:28:47;;;;;;;;;;;;;;;19.48;52.20;-18550.94;5029886;28;19940;-79
2023/05/19 09:31:12;;;;;;;;;;;;;;;19.51;50.30;-18551.75;5045258;28;20392;-79
2023/05/19 09:33:41;;;;;;;;;;;;;;;19.38;52.28;-18548.34;5028672;28;19917;-79
2023/05/19 09:36:12;;;;;;;;;;;;;;;19.67;52.88;-18555.97;5029135;28;20023;-79
2023/05/19 09:38:38;;;;;;;;;;;;;;;19.59;50.28;-18554.06;5033611;28;20517;-80
2023/05/19 09:41:04;;;;;;;;;;;;;;;19.63;51.17;-18554.88;5024330;28;19960;-79
2023/05/19 09:43:30;;;;;;;;;;;;;;;19.45;52.01;-18550.25;5020426;28;19934;-79
2023/05/19 09:46:02;;;;;;;;;;;;;;;19.54;52.35;-18552.69;5024086;28;19925;-79
2023/05/19 09:48:27;;;;;;;;;;;;;;;19.63;50.97;-18554.88;5026038;28;20392;-79
2023/05/19 09:50:53;;;;;;;;;;;;;;;19.78;51.32;-18558.97;5023638;28;19972;-78
2023/05/19 09:53:19;;;;;;;;;;;;;;;19.73;49.04;-18557.59;5036016;28;19932;-78
2023/05/19 09:55:44;;;;;;;;;;;;;;;19.82;50.40;-18560.19;5028514;28;19975;-78
2023/05/19 09:58:14;;;;;;;;;;;;;;;20.04;51.46;-18565.91;5027511;28;19925;-78
2023/05/19 10:00:40;;;;;;;;;;;;;;;20.09;51.15;-18567.13;5029015;28;20358;-78
2023/05/19 10:03:05;;;;;;;;;;;;;;;19.99;52.77;-18564.69;5029480;28;20020;-78
2023/05/19 10:05:31;;;;;;;;;;;;;;;19.81;48.08;-18559.78;5030487;28;20015;-79
2023/05/19 10:07:57;;;;;;;;;;;;;;;19.53;48.44;-18552.44;5030764;28;20015;-78
2023/05/19 10:10:22;;;;;;;;;;;;;;;19.85;49.90;-18560.88;5019517;28;19928;-78
2023/05/19 10:12:48;;;;;;;;;;;;;;;20.19;48.84;-18570.00;5017826;28;20377;-78
2023/05/19 10:15:16;;;;;;;;;;;;;;;20.31;49.60;-18573.13;5030170;28;20002;-79
2023/05/19 10:17:42;;;;;;;;;;;;;;;20.54;47.98;-18579.13;5017034;28;19971;-79
2023/05/19 10:20:16;;;;;;;;;;;;;;;20.83;49.18;-18586.88;5028715;28;19925;-78
2023/05/19 10:22:42;;;;;;;;;;;;;;;20.86;44.90;-18587.81;5016281;28;20362;-79
2023/05/19 10:25:08;;;;;;;;;;;;;;;20.89;44.69;-18588.63;5020237;28;19922;-79
2023/05/19 10:27:35;;;;;;;;;;;;;;;21.22;43.40;-18597.34;5026557;28;19960;-80
2023/05/19 10:30:04;;;;;;;;;;;;;;;21.36;46.83;-18601.00;5023100;28;19924;-79
2023/05/19 10:32:31;;;;;;;;;;;;;;;21.34;44.82;-18600.59;5024769;28;19922;-79
2023/05/19 10:35:02;;;;;;;;;;;;;;;21.34;43.38;-18600.47;5036479;28;20341;-79
2023/05/19 10:37:28;;;;;;;;;;;;;;;21.51;46.59;-18604.97;5009887;28;19928;-79
2023/05/19 10:39:54;;;;;;;;;;;;;;;21.59;45.40;-18607.28;5016316;28;19921;-79
2023/05/19 10:42:42;;;;;;;;;;;;;;;21.64;44.94;-18608.50;5022567;28;19917;-79
2023/05/19 10:45:07;;;;;;;;;;;;;;;21.82;42.26;-18613.38;5022771;28;19925;-79
2023/05/19 10:47:33;;;;;;;;;;;;;;;21.91;45.17;-18615.69;5025648;28;19990;-79
2023/05/19 10:50:03;;;;;;;;;;;;;;;21.96;43.44;-18616.91;5033954;28;20400;-79
2023/05/19 10:52:29;;;;;;;;;;;;;;;21.94;40.83;-18616.38;5031657;28;19917;-79
2023/05/19 10:54:55;;;;;;;;;;;;;;;21.95;42.02;-18616.66;5033191;28;19940;-80
2023/05/19 10:57:31;;;;;;;;;;;;;;;22.00;42.62;-18618.13;5031429;28;19929;-78
2023/05/19 10:59:56;;;;;;;;;;;;;;;22.19;41.00;-18623.16;5031319;28;19921;-80
2023/05/19 11:02:38;;;;;;;;;;;;;;;21.98;41.35;-18617.59;5029945;28;19921;-80
2023/05/19 11:05:13;;;;;;;;;;;;;;;21.86;41.26;-18614.47;5028913;28;19921;-79
2023/05/19 11:07:40;;;;;;;;;;;;;;;21.81;40.92;-18613.13;5029799;28;19927;-78
2023/05/19 11:10:08;;;;;;;;;;;;;;;21.83;41.17;-18613.66;5022918;28;19921;-78
2023/05/19 11:12:41;;;;;;;;;;;;;;;21.84;41.48;-18613.94;5018135;28;20391;-78
2023/05/19 11:15:09;;;;;;;;;;;;;;;21.95;41.24;-18616.66;5025846;28;20339;-78
2023/05/19 11:17:34;;;;;;;;;;;;;;;21.74;40.61;-18611.22;5028130;28;19922;-79
2023/05/19 11:20:00;;;;;;;;;;;;;;;21.48;40.89;-18604.16;5021445;28;19940;-79
2023/05/19 11:22:26;;;;;;;;;;;;;;;21.50;42.71;-18604.81;5024741;28;20486;-79
2023/05/19 11:24:53;;;;;;;;;;;;;;;21.42;39.84;-18602.66;5024928;28;19925;-79
2023/05/19 11:27:31;;;;;;;;;;;;;;;21.15;40.23;-18595.44;5020313;28;19921;-80
2023/05/19 11:30:17;;;;;;;;;;;;;;;21.64;41.28;-18608.50;5020891;28;20409;-79
2023/05/19 11:32:46;;;;;;;;;;;;;;;21.84;39.33;-18613.94;5019077;28;19925;-79
2023/05/19 11:35:11;;;;;;;;;;;;;;;21.94;40.34;-18616.50;5021999;28;19921;-79
2023/05/19 11:37:36;;;;;;;;;;;;;;;22.12;39.98;-18621.25;5025436;28;19928;-79
2023/05/19 11:40:06;;;;;;;;;;;;;;;22.10;40.06;-18620.72;5023915;28;19922;-79
2023/05/19 11:42:32;;;;;;;;;;;;;;;22.29;40.16;-18625.88;5018806;28;19953;-79
2023/05/19 11:44:58;;;;;;;;;;;;;;;22.40;39.09;-18628.59;5029575;28;19933;-79
2023/05/19 11:47:23;;;;;;;;;;;;;;;22.58;39.77;-18633.50;5022428;28;19921;-79
2023/05/19 11:49:50;;;;;;;;;;;;;;;22.59;40.27;-18633.75;5019067;28;20035;-79
2023/05/19 11:52:16;;;;;;;;;;;;;;;22.82;37.95;-18639.72;5027256;28;19925;-79
2023/05/19 11:54:41;;;;;;;;;;;;;;;22.53;37.84;-18632.13;5024549;28;19921;-79
2023/05/19 11:57:08;;;;;;;;;;;;;;;22.48;39.10;-18630.91;5022433;28;19921;-79
2023/05/19 11:59:34;;;;;;;;;;;;;;;22.06;40.16;-18619.78;5017869;28;19929;-79
2023/05/19 12:02:00;;;;;;;;;;;;;;;22.10;40.89;-18620.72;5023828;28;19936;-79
2023/05/19 12:04:28;;;;;;;;;;;;;;;22.55;40.94;-18632.66;5020827;28;21455;-79
2023/05/19 12:06:53;;;;;;;;;;;;;;;22.75;38.87;-18637.97;5023143;28;19961;-79
2023/05/19 12:09:21;;;;;;;;;;;;;;;22.65;39.17;-18635.38;5024601;28;20004;-79
2023/05/19 12:11:46;;;;;;;;;;;;;;;22.98;41.98;-18644.06;5024214;28;19921;-79
2023/05/19 12:14:11;;;;;;;;;;;;;;;22.93;39.87;-18642.84;5024523;28;20016;-79
2023/05/19 12:16:37;;;;;;;;;;;;;;;23.18;39.74;-18649.50;5024816;28;19929;-79
2023/05/19 12:19:06;;;;;;;;;;;;;;;22.88;38.92;-18641.38;5026110;28;20424;-79
2023/05/19 12:21:31;;;;;;;;;;;;;;;22.63;40.83;-18634.72;5023633;28;19921;-79
2023/05/19 12:23:58;;;;;;;;;;;;;;;22.45;39.23;-18629.97;5019727;28;20359;-79
2023/05/19 12:26:23;;;;;;;;;;;;;;;22.75;41.59;-18638.09;5021647;28;20015;-79
2023/05/19 12:28:49;;;;;;;;;;;;;;;22.74;38.75;-18637.84;5024227;28;20016;-79